sensor_id;sensor_type;location;lat;lon;timestamp;P1;durP1;ratioP1;P2;durP2;ratioP2
5869;SDS011;2961;47.702;9.410;2023-07-08T00:00:10;8.53;;;5.10;;
5869;SDS011;2961;47.702;9.410;2023-07-08T00:02:39;6.73;;;5.87;;
5869;SDS011;2961;47.702;9.410;2023-07-08T00:05:07;8.53;;;5.93;;
5869;SDS011;2961;47.702;9.410;2023-07-08T00:07:36;7.20;;;5.20;;
5869;SDS011;2961;47.702;9.410;2023-07-08T00:10:08;8.93;;;5.17;;
5869;SDS011;2961;47.702;9.410;2023-07-08T00:12:37;8.73;;;6.10;;
5869;SDS011;2961;47.702;9.410;2023-07-08T00:15:05;9.97;;;5.87;;
5869;SDS011;2961;47.702;9.410;2023-07-08T00:17:32;7.60;;;5.60;;
5869;SDS011;2961;47.702;9.410;2023-07-08T00:19:59;10.93;;;4.90;;
5869;SDS011;2961;47.702;9.410;2023-07-08T00:22:25;10.60;;;5.47;;
5869;SDS011;2961;47.702;9.410;2023-07-08T00:24:54;7.70;;;5.47;;
5869;SDS011;2961;47.702;9.410;2023-07-08T00:27:20;8.73;;;5.03;;
5869;SDS011;2961;47.702;9.410;2023-07-08T00:29:47;12.83;;;6.20;;
5869;SDS011;2961;47.702;9.410;2023-07-08T00:32:14;6.40;;;4.33;;
5869;SDS011;2961;47.702;9.410;2023-07-08T00:34:41;9.07;;;5.70;;
5869;SDS011;2961;47.702;9.410;2023-07-08T00:37:09;8.17;;;5.77;;
5869;SDS011;2961;47.702;9.410;2023-07-08T00:39:37;9.30;;;5.60;;
5869;SDS011;2961;47.702;9.410;2023-07-08T00:42:09;9.70;;;5.10;;
5869;SDS011;2961;47.702;9.410;2023-07-08T00:44:41;6.50;;;4.97;;
5869;SDS011;2961;47.702;9.410;2023-07-08T00:47:10;7.23;;;5.10;;
5869;SDS011;2961;47.702;9.410;2023-07-08T00:49:39;8.40;;;4.93;;
5869;SDS011;2961;47.702;9.410;2023-07-08T00:52:16;10.00;;;4.87;;
5869;SDS011;2961;47.702;9.410;2023-07-08T00:54:44;11.67;;;5.70;;
5869;SDS011;2961;47.702;9.410;2023-07-08T00:57:13;8.40;;;5.27;;
5869;SDS011;2961;47.702;9.410;2023-07-08T00:59:41;12.67;;;5.83;;
5869;SDS011;2961;47.702;9.410;2023-07-08T01:02:13;10.50;;;5.30;;
5869;SDS011;2961;47.702;9.410;2023-07-08T01:04:44;9.10;;;6.30;;
5869;SDS011;2961;47.702;9.410;2023-07-08T01:07:16;10.20;;;5.30;;
5869;SDS011;2961;47.702;9.410;2023-07-08T01:09:46;7.03;;;5.33;;
5869;SDS011;2961;47.702;9.410;2023-07-08T01:12:19;10.20;;;6.57;;
5869;SDS011;2961;47.702;9.410;2023-07-08T01:14:48;13.00;;;7.23;;
5869;SDS011;2961;47.702;9.410;2023-07-08T01:17:20;6.20;;;4.87;;
5869;SDS011;2961;47.702;9.410;2023-07-08T01:19:47;10.13;;;5.70;;
5869;SDS011;2961;47.702;9.410;2023-07-08T01:22:17;7.00;;;4.90;;
5869;SDS011;2961;47.702;9.410;2023-07-08T01:24:45;7.90;;;5.27;;
5869;SDS011;2961;47.702;9.410;2023-07-08T01:27:13;10.10;;;5.83;;
5869;SDS011;2961;47.702;9.410;2023-07-08T01:29:43;9.70;;;5.10;;
5869;SDS011;2961;47.702;9.410;2023-07-08T01:32:10;10.43;;;5.70;;
5869;SDS011;2961;47.702;9.410;2023-07-08T01:34:39;7.60;;;5.80;;
5869;SDS011;2961;47.702;9.410;2023-07-08T01:37:06;9.27;;;5.67;;
5869;SDS011;2961;47.702;9.410;2023-07-08T01:39:37;10.70;;;7.17;;
5869;SDS011;2961;47.702;9.410;2023-07-08T01:42:04;7.67;;;6.10;;
5869;SDS011;2961;47.702;9.410;2023-07-08T01:44:31;21.23;;;6.33;;
5869;SDS011;2961;47.702;9.410;2023-07-08T01:47:02;10.20;;;6.10;;
5869;SDS011;2961;47.702;9.410;2023-07-08T01:49:31;15.60;;;5.80;;
5869;SDS011;2961;47.702;9.410;2023-07-08T01:51:59;9.77;;;5.37;;
5869;SDS011;2961;47.702;9.410;2023-07-08T01:54:27;9.83;;;6.47;;
5869;SDS011;2961;47.702;9.410;2023-07-08T01:56:56;9.87;;;5.60;;
5869;SDS011;2961;47.702;9.410;2023-07-08T01:59:23;8.27;;;5.80;;
5869;SDS011;2961;47.702;9.410;2023-07-08T02:01:50;11.23;;;5.70;;
5869;SDS011;2961;47.702;9.410;2023-07-08T02:04:19;8.87;;;5.60;;
5869;SDS011;2961;47.702;9.410;2023-07-08T02:06:50;10.57;;;6.43;;
5869;SDS011;2961;47.702;9.410;2023-07-08T02:09:18;10.20;;;6.00;;
5869;SDS011;2961;47.702;9.410;2023-07-08T02:11:45;11.13;;;5.87;;
5869;SDS011;2961;47.702;9.410;2023-07-08T02:14:13;8.03;;;4.53;;
5869;SDS011;2961;47.702;9.410;2023-07-08T02:16:40;5.83;;;4.80;;
5869;SDS011;2961;47.702;9.410;2023-07-08T02:19:06;10.37;;;6.60;;
5869;SDS011;2961;47.702;9.410;2023-07-08T02:21:33;9.53;;;5.50;;
5869;SDS011;2961;47.702;9.410;2023-07-08T02:24:00;8.20;;;5.90;;
5869;SDS011;2961;47.702;9.410;2023-07-08T02:26:27;9.07;;;5.60;;
5869;SDS011;2961;47.702;9.410;2023-07-08T02:28:57;6.70;;;5.40;;
5869;SDS011;2961;47.702;9.410;2023-07-08T02:31:25;9.07;;;5.80;;
5869;SDS011;2961;47.702;9.410;2023-07-08T02:33:52;14.13;;;6.63;;
5869;SDS011;2961;47.702;9.410;2023-07-08T02:36:20;7.40;;;5.50;;
5869;SDS011;2961;47.702;9.410;2023-07-08T02:38:47;10.80;;;5.93;;
5869;SDS011;2961;47.702;9.410;2023-07-08T02:41:13;8.23;;;4.73;;
5869;SDS011;2961;47.702;9.410;2023-07-08T02:43:40;8.33;;;5.47;;
5869;SDS011;2961;47.702;9.410;2023-07-08T02:46:07;8.90;;;5.00;;
5869;SDS011;2961;47.702;9.410;2023-07-08T02:48:35;8.17;;;4.90;;
5869;SDS011;2961;47.702;9.410;2023-07-08T02:51:03;8.57;;;5.60;;
5869;SDS011;2961;47.702;9.410;2023-07-08T02:53:30;10.47;;;6.60;;
5869;SDS011;2961;47.702;9.410;2023-07-08T02:55:57;11.30;;;5.70;;
5869;SDS011;2961;47.702;9.410;2023-07-08T02:58:24;13.17;;;6.57;;
5869;SDS011;2961;47.702;9.410;2023-07-08T03:00:51;18.67;;;6.83;;
5869;SDS011;2961;47.702;9.410;2023-07-08T03:03:18;19.73;;;7.03;;
5869;SDS011;2961;47.702;9.410;2023-07-08T03:05:54;9.67;;;6.43;;
5869;SDS011;2961;47.702;9.410;2023-07-08T03:08:21;9.97;;;6.23;;
5869;SDS011;2961;47.702;9.410;2023-07-08T03:10:53;8.77;;;6.10;;
5869;SDS011;2961;47.702;9.410;2023-07-08T03:13:21;9.33;;;6.27;;
5869;SDS011;2961;47.702;9.410;2023-07-08T03:15:48;6.30;;;5.20;;
5869;SDS011;2961;47.702;9.410;2023-07-08T03:18:15;9.53;;;6.33;;
5869;SDS011;2961;47.702;9.410;2023-07-08T03:20:42;11.93;;;6.33;;
5869;SDS011;2961;47.702;9.410;2023-07-08T03:23:11;16.00;;;9.53;;
5869;SDS011;2961;47.702;9.410;2023-07-08T03:25:37;8.60;;;6.13;;
5869;SDS011;2961;47.702;9.410;2023-07-08T03:28:04;9.07;;;5.10;;
5869;SDS011;2961;47.702;9.410;2023-07-08T03:30:32;12.83;;;6.80;;
5869;SDS011;2961;47.702;9.410;2023-07-08T03:33:00;13.00;;;6.80;;
5869;SDS011;2961;47.702;9.410;2023-07-08T03:35:26;10.60;;;6.10;;
5869;SDS011;2961;47.702;9.410;2023-07-08T03:37:53;14.73;;;6.97;;
5869;SDS011;2961;47.702;9.410;2023-07-08T03:40:21;14.47;;;7.13;;
5869;SDS011;2961;47.702;9.410;2023-07-08T03:42:48;9.67;;;6.80;;
5869;SDS011;2961;47.702;9.410;2023-07-08T03:45:15;11.53;;;7.50;;
5869;SDS011;2961;47.702;9.410;2023-07-08T03:47:42;14.77;;;6.70;;
5869;SDS011;2961;47.702;9.410;2023-07-08T03:50:10;7.40;;;5.70;;
5869;SDS011;2961;47.702;9.410;2023-07-08T03:52:44;10.30;;;6.30;;
5869;SDS011;2961;47.702;9.410;2023-07-08T03:55:11;12.20;;;6.03;;
5869;SDS011;2961;47.702;9.410;2023-07-08T03:57:39;10.87;;;5.80;;
5869;SDS011;2961;47.702;9.410;2023-07-08T04:00:07;14.60;;;7.07;;
5869;SDS011;2961;47.702;9.410;2023-07-08T04:02:37;9.17;;;5.60;;
5869;SDS011;2961;47.702;9.410;2023-07-08T04:05:04;8.97;;;5.90;;
5869;SDS011;2961;47.702;9.410;2023-07-08T04:07:31;8.77;;;6.27;;
5869;SDS011;2961;47.702;9.410;2023-07-08T04:09:58;8.23;;;6.40;;
5869;SDS011;2961;47.702;9.410;2023-07-08T04:12:25;11.40;;;6.70;;
5869;SDS011;2961;47.702;9.410;2023-07-08T04:14:54;8.80;;;6.47;;
5869;SDS011;2961;47.702;9.410;2023-07-08T04:17:21;12.37;;;6.23;;
5869;SDS011;2961;47.702;9.410;2023-07-08T04:19:49;11.17;;;6.20;;
5869;SDS011;2961;47.702;9.410;2023-07-08T04:22:15;11.17;;;6.30;;
5869;SDS011;2961;47.702;9.410;2023-07-08T04:24:42;13.40;;;5.70;;
5869;SDS011;2961;47.702;9.410;2023-07-08T04:27:11;10.57;;;6.27;;
5869;SDS011;2961;47.702;9.410;2023-07-08T04:29:40;14.20;;;6.23;;
5869;SDS011;2961;47.702;9.410;2023-07-08T04:32:09;9.40;;;6.40;;
5869;SDS011;2961;47.702;9.410;2023-07-08T04:34:36;14.43;;;6.43;;
5869;SDS011;2961;47.702;9.410;2023-07-08T04:37:02;9.13;;;5.90;;
5869;SDS011;2961;47.702;9.410;2023-07-08T04:39:30;15.73;;;7.47;;
5869;SDS011;2961;47.702;9.410;2023-07-08T04:41:57;12.00;;;5.80;;
5869;SDS011;2961;47.702;9.410;2023-07-08T04:44:24;12.20;;;5.80;;
5869;SDS011;2961;47.702;9.410;2023-07-08T04:46:52;12.27;;;6.87;;
5869;SDS011;2961;47.702;9.410;2023-07-08T04:49:23;13.10;;;7.07;;
5869;SDS011;2961;47.702;9.410;2023-07-08T04:51:56;14.50;;;6.80;;
5869;SDS011;2961;47.702;9.410;2023-07-08T04:54:24;8.10;;;6.17;;
5869;SDS011;2961;47.702;9.410;2023-07-08T04:56:51;9.93;;;6.57;;
5869;SDS011;2961;47.702;9.410;2023-07-08T04:59:21;9.40;;;6.60;;
5869;SDS011;2961;47.702;9.410;2023-07-08T05:01:48;8.40;;;6.70;;
5869;SDS011;2961;47.702;9.410;2023-07-08T05:04:18;14.00;;;6.33;;
5869;SDS011;2961;47.702;9.410;2023-07-08T05:06:47;9.40;;;7.07;;
5869;SDS011;2961;47.702;9.410;2023-07-08T05:09:14;10.20;;;7.70;;
5869;SDS011;2961;47.702;9.410;2023-07-08T05:11:41;9.73;;;6.60;;
5869;SDS011;2961;47.702;9.410;2023-07-08T05:14:08;9.70;;;7.10;;
5869;SDS011;2961;47.702;9.410;2023-07-08T05:16:37;8.83;;;6.00;;
5869;SDS011;2961;47.702;9.410;2023-07-08T05:19:03;10.20;;;7.27;;
5869;SDS011;2961;47.702;9.410;2023-07-08T05:21:30;9.10;;;6.27;;
5869;SDS011;2961;47.702;9.410;2023-07-08T05:24:00;12.43;;;5.97;;
5869;SDS011;2961;47.702;9.410;2023-07-08T05:26:27;10.57;;;6.63;;
5869;SDS011;2961;47.702;9.410;2023-07-08T05:28:53;8.07;;;6.60;;
5869;SDS011;2961;47.702;9.410;2023-07-08T05:31:20;8.80;;;6.10;;
5869;SDS011;2961;47.702;9.410;2023-07-08T05:33:47;9.23;;;6.87;;
5869;SDS011;2961;47.702;9.410;2023-07-08T05:36:14;11.13;;;6.00;;
5869;SDS011;2961;47.702;9.410;2023-07-08T05:38:40;7.80;;;5.93;;
5869;SDS011;2961;47.702;9.410;2023-07-08T05:41:08;5.70;;;5.07;;
5869;SDS011;2961;47.702;9.410;2023-07-08T05:43:37;7.53;;;6.30;;
5869;SDS011;2961;47.702;9.410;2023-07-08T05:46:04;6.33;;;5.70;;
5869;SDS011;2961;47.702;9.410;2023-07-08T05:48:30;12.63;;;6.00;;
5869;SDS011;2961;47.702;9.410;2023-07-08T05:50:57;7.47;;;6.20;;
5869;SDS011;2961;47.702;9.410;2023-07-08T05:53:24;9.00;;;6.27;;
5869;SDS011;2961;47.702;9.410;2023-07-08T05:55:51;11.07;;;5.70;;
5869;SDS011;2961;47.702;9.410;2023-07-08T05:58:19;8.43;;;6.30;;
5869;SDS011;2961;47.702;9.410;2023-07-08T06:00:46;10.20;;;6.87;;
5869;SDS011;2961;47.702;9.410;2023-07-08T06:03:13;8.53;;;6.97;;
5869;SDS011;2961;47.702;9.410;2023-07-08T06:05:39;8.87;;;6.50;;
5869;SDS011;2961;47.702;9.410;2023-07-08T06:08:06;16.97;;;8.90;;
5869;SDS011;2961;47.702;9.410;2023-07-08T06:10:33;11.00;;;7.40;;
5869;SDS011;2961;47.702;9.410;2023-07-08T06:13:00;10.97;;;7.10;;
5869;SDS011;2961;47.702;9.410;2023-07-08T06:15:28;10.80;;;7.10;;
5869;SDS011;2961;47.702;9.410;2023-07-08T06:17:55;9.63;;;7.20;;
5869;SDS011;2961;47.702;9.410;2023-07-08T06:20:25;11.97;;;7.70;;
5869;SDS011;2961;47.702;9.410;2023-07-08T06:22:52;9.90;;;6.97;;
5869;SDS011;2961;47.702;9.410;2023-07-08T06:25:19;7.80;;;5.20;;
5869;SDS011;2961;47.702;9.410;2023-07-08T06:27:46;8.60;;;5.10;;
5869;SDS011;2961;47.702;9.410;2023-07-08T06:30:13;8.63;;;4.87;;
5869;SDS011;2961;47.702;9.410;2023-07-08T06:32:41;5.60;;;3.20;;
5869;SDS011;2961;47.702;9.410;2023-07-08T06:35:08;5.10;;;3.20;;
5869;SDS011;2961;47.702;9.410;2023-07-08T06:37:35;3.67;;;3.10;;
5869;SDS011;2961;47.702;9.410;2023-07-08T06:40:02;9.10;;;3.17;;
5869;SDS011;2961;47.702;9.410;2023-07-08T06:42:29;7.50;;;2.90;;
5869;SDS011;2961;47.702;9.410;2023-07-08T06:44:56;3.00;;;2.80;;
5869;SDS011;2961;47.702;9.410;2023-07-08T06:47:22;3.40;;;2.80;;
5869;SDS011;2961;47.702;9.410;2023-07-08T06:49:50;4.70;;;2.30;;
5869;SDS011;2961;47.702;9.410;2023-07-08T06:52:17;4.30;;;2.40;;
5869;SDS011;2961;47.702;9.410;2023-07-08T06:54:44;9.23;;;2.93;;
5869;SDS011;2961;47.702;9.410;2023-07-08T06:57:11;2.97;;;2.20;;
5869;SDS011;2961;47.702;9.410;2023-07-08T06:59:37;4.00;;;2.00;;
5869;SDS011;2961;47.702;9.410;2023-07-08T07:02:04;2.73;;;2.03;;
5869;SDS011;2961;47.702;9.410;2023-07-08T07:04:32;3.47;;;2.30;;
5869;SDS011;2961;47.702;9.410;2023-07-08T07:07:02;2.23;;;1.90;;
5869;SDS011;2961;47.702;9.410;2023-07-08T07:09:29;4.03;;;1.95;;
5869;SDS011;2961;47.702;9.410;2023-07-08T07:11:55;5.07;;;2.20;;
5869;SDS011;2961;47.702;9.410;2023-07-08T07:14:22;6.03;;;1.83;;
5869;SDS011;2961;47.702;9.410;2023-07-08T07:16:49;2.33;;;2.23;;
5869;SDS011;2961;47.702;9.410;2023-07-08T07:19:16;3.47;;;1.80;;
5869;SDS011;2961;47.702;9.410;2023-07-08T07:21:42;4.03;;;1.93;;
5869;SDS011;2961;47.702;9.410;2023-07-08T07:24:10;2.10;;;1.90;;
5869;SDS011;2961;47.702;9.410;2023-07-08T07:26:37;4.83;;;1.47;;
5869;SDS011;2961;47.702;9.410;2023-07-08T07:29:04;2.87;;;1.57;;
5869;SDS011;2961;47.702;9.410;2023-07-08T07:31:31;1.37;;;1.27;;
5869;SDS011;2961;47.702;9.410;2023-07-08T07:33:58;1.80;;;1.70;;
5869;SDS011;2961;47.702;9.410;2023-07-08T07:36:25;3.10;;;2.13;;
5869;SDS011;2961;47.702;9.410;2023-07-08T07:38:52;2.70;;;1.87;;
5869;SDS011;2961;47.702;9.410;2023-07-08T07:41:20;3.75;;;2.10;;
5869;SDS011;2961;47.702;9.410;2023-07-08T07:43:48;1.70;;;1.60;;
5869;SDS011;2961;47.702;9.410;2023-07-08T07:46:15;4.73;;;2.20;;
5869;SDS011;2961;47.702;9.410;2023-07-08T07:48:42;1.83;;;1.73;;
5869;SDS011;2961;47.702;9.410;2023-07-08T07:51:09;3.90;;;2.13;;
5869;SDS011;2961;47.702;9.410;2023-07-08T07:53:37;4.00;;;1.50;;
5869;SDS011;2961;47.702;9.410;2023-07-08T07:56:04;1.97;;;1.83;;
5869;SDS011;2961;47.702;9.410;2023-07-08T07:58:33;4.43;;;1.77;;
5869;SDS011;2961;47.702;9.410;2023-07-08T08:01:00;2.13;;;1.90;;
5869;SDS011;2961;47.702;9.410;2023-07-08T08:03:31;3.60;;;2.00;;
5869;SDS011;2961;47.702;9.410;2023-07-08T08:05:58;3.90;;;1.77;;
5869;SDS011;2961;47.702;9.410;2023-07-08T08:08:25;7.80;;;2.73;;
5869;SDS011;2961;47.702;9.410;2023-07-08T08:10:52;2.00;;;1.90;;
5869;SDS011;2961;47.702;9.410;2023-07-08T08:13:19;1.90;;;1.80;;
5869;SDS011;2961;47.702;9.410;2023-07-08T08:15:47;2.30;;;1.73;;
5869;SDS011;2961;47.702;9.410;2023-07-08T08:18:14;3.20;;;2.10;;
5869;SDS011;2961;47.702;9.410;2023-07-08T08:20:40;4.40;;;2.00;;
5869;SDS011;2961;47.702;9.410;2023-07-08T08:23:07;2.90;;;1.73;;
5869;SDS011;2961;47.702;9.410;2023-07-08T08:25:34;1.70;;;1.40;;
5869;SDS011;2961;47.702;9.410;2023-07-08T08:28:01;3.37;;;1.87;;
5869;SDS011;2961;47.702;9.410;2023-07-08T08:30:27;2.17;;;2.00;;
5869;SDS011;2961;47.702;9.410;2023-07-08T08:32:56;3.63;;;1.77;;
5869;SDS011;2961;47.702;9.410;2023-07-08T08:35:22;3.47;;;2.07;;
5869;SDS011;2961;47.702;9.410;2023-07-08T08:37:49;3.20;;;2.13;;
5869;SDS011;2961;47.702;9.410;2023-07-08T08:40:16;6.90;;;2.00;;
5869;SDS011;2961;47.702;9.410;2023-07-08T08:42:45;1.97;;;1.80;;
5869;SDS011;2961;47.702;9.410;2023-07-08T08:45:18;2.10;;;1.90;;
5869;SDS011;2961;47.702;9.410;2023-07-08T08:47:47;4.33;;;2.20;;
5869;SDS011;2961;47.702;9.410;2023-07-08T08:50:24;5.70;;;2.00;;
5869;SDS011;2961;47.702;9.410;2023-07-08T08:52:54;3.13;;;1.80;;
5869;SDS011;2961;47.702;9.410;2023-07-08T08:55:23;3.23;;;1.80;;
5869;SDS011;2961;47.702;9.410;2023-07-08T08:57:53;2.93;;;1.90;;
5869;SDS011;2961;47.702;9.410;2023-07-08T09:00:27;1.67;;;1.57;;
5869;SDS011;2961;47.702;9.410;2023-07-08T09:03:11;2.40;;;1.70;;
5869;SDS011;2961;47.702;9.410;2023-07-08T09:05:42;2.63;;;1.80;;
5869;SDS011;2961;47.702;9.410;2023-07-08T09:08:12;2.83;;;1.67;;
5869;SDS011;2961;47.702;9.410;2023-07-08T09:10:44;1.97;;;1.53;;
5869;SDS011;2961;47.702;9.410;2023-07-08T09:13:15;3.10;;;1.77;;
5869;SDS011;2961;47.702;9.410;2023-07-08T09:15:48;2.17;;;1.97;;
5869;SDS011;2961;47.702;9.410;2023-07-08T09:18:20;1.80;;;1.70;;
5869;SDS011;2961;47.702;9.410;2023-07-08T09:20:57;3.30;;;1.43;;
5869;SDS011;2961;47.702;9.410;2023-07-08T09:23:27;1.83;;;1.50;;
5869;SDS011;2961;47.702;9.410;2023-07-08T09:25:59;4.83;;;2.03;;
5869;SDS011;2961;47.702;9.410;2023-07-08T09:28:36;2.40;;;2.20;;
5869;SDS011;2961;47.702;9.410;2023-07-08T09:31:05;2.80;;;1.60;;
5869;SDS011;2961;47.702;9.410;2023-07-08T09:33:36;2.00;;;1.50;;
5869;SDS011;2961;47.702;9.410;2023-07-08T09:36:08;2.13;;;2.00;;
5869;SDS011;2961;47.702;9.410;2023-07-08T09:38:43;1.80;;;1.70;;
5869;SDS011;2961;47.702;9.410;2023-07-08T09:41:13;1.73;;;1.63;;
5869;SDS011;2961;47.702;9.410;2023-07-08T09:43:40;3.00;;;1.50;;
5869;SDS011;2961;47.702;9.410;2023-07-08T09:46:10;2.77;;;1.80;;
5869;SDS011;2961;47.702;9.410;2023-07-08T09:48:38;2.17;;;2.03;;
5869;SDS011;2961;47.702;9.410;2023-07-08T09:51:05;4.43;;;1.60;;
5869;SDS011;2961;47.702;9.410;2023-07-08T09:53:34;1.60;;;1.40;;
5869;SDS011;2961;47.702;9.410;2023-07-08T09:56:03;1.77;;;1.67;;
5869;SDS011;2961;47.702;9.410;2023-07-08T09:58:31;2.53;;;2.30;;
5869;SDS011;2961;47.702;9.410;2023-07-08T10:01:08;3.90;;;2.30;;
5869;SDS011;2961;47.702;9.410;2023-07-08T10:03:37;5.17;;;2.00;;
5869;SDS011;2961;47.702;9.410;2023-07-08T10:06:05;1.70;;;1.60;;
5869;SDS011;2961;47.702;9.410;2023-07-08T10:08:41;2.47;;;1.97;;
5869;SDS011;2961;47.702;9.410;2023-07-08T10:11:11;3.00;;;1.80;;
5869;SDS011;2961;47.702;9.410;2023-07-08T10:13:47;3.40;;;2.10;;
5869;SDS011;2961;47.702;9.410;2023-07-08T10:16:16;3.10;;;2.00;;
5869;SDS011;2961;47.702;9.410;2023-07-08T10:18:49;2.33;;;2.13;;
5869;SDS011;2961;47.702;9.410;2023-07-08T10:21:19;5.47;;;2.33;;
5869;SDS011;2961;47.702;9.410;2023-07-08T10:23:59;3.33;;;2.50;;
5869;SDS011;2961;47.702;9.410;2023-07-08T10:26:35;11.13;;;8.33;;
5869;SDS011;2961;47.702;9.410;2023-07-08T10:29:07;3.37;;;3.00;;
5869;SDS011;2961;47.702;9.410;2023-07-08T10:31:46;24.97;;;15.83;;
5869;SDS011;2961;47.702;9.410;2023-07-08T10:34:21;55.97;;;35.57;;
5869;SDS011;2961;47.702;9.410;2023-07-08T10:37:03;21.37;;;13.67;;
5869;SDS011;2961;47.702;9.410;2023-07-08T10:39:43;17.77;;;11.47;;
5869;SDS011;2961;47.702;9.410;2023-07-08T10:45:10;8.90;;;5.47;;
5869;SDS011;2961;47.702;9.410;2023-07-08T10:47:55;13.83;;;9.50;;
5869;SDS011;2961;47.702;9.410;2023-07-08T10:50:37;20.33;;;13.27;;
5869;SDS011;2961;47.702;9.410;2023-07-08T10:53:25;17.10;;;10.43;;
5869;SDS011;2961;47.702;9.410;2023-07-08T10:56:12;5.00;;;3.73;;
5869;SDS011;2961;47.702;9.410;2023-07-08T10:59:04;4.07;;;2.63;;
5869;SDS011;2961;47.702;9.410;2023-07-08T11:01:44;4.40;;;3.10;;
5869;SDS011;2961;47.702;9.410;2023-07-08T11:04:31;16.87;;;9.77;;
5869;SDS011;2961;47.702;9.410;2023-07-08T11:07:10;5.13;;;3.07;;
5869;SDS011;2961;47.702;9.410;2023-07-08T11:09:43;9.00;;;6.87;;
5869;SDS011;2961;47.702;9.410;2023-07-08T11:12:17;8.27;;;5.23;;
5869;SDS011;2961;47.702;9.410;2023-07-08T11:14:50;16.10;;;8.67;;
5869;SDS011;2961;47.702;9.410;2023-07-08T11:17:24;3.97;;;1.90;;
5869;SDS011;2961;47.702;9.410;2023-07-08T11:19:57;7.30;;;2.10;;
5869;SDS011;2961;47.702;9.410;2023-07-08T11:22:28;9.60;;;7.00;;
5869;SDS011;2961;47.702;9.410;2023-07-08T11:24:57;8.93;;;5.20;;
5869;SDS011;2961;47.702;9.410;2023-07-08T11:27:28;2.93;;;2.43;;
5869;SDS011;2961;47.702;9.410;2023-07-08T11:29:59;4.60;;;2.13;;
5869;SDS011;2961;47.702;9.410;2023-07-08T11:32:32;2.23;;;2.03;;
5869;SDS011;2961;47.702;9.410;2023-07-08T11:35:02;7.30;;;3.90;;
5869;SDS011;2961;47.702;9.410;2023-07-08T11:37:31;9.20;;;5.33;;
5869;SDS011;2961;47.702;9.410;2023-07-08T11:40:00;7.50;;;6.13;;
5869;SDS011;2961;47.702;9.410;2023-07-08T11:42:37;3.40;;;2.77;;
5869;SDS011;2961;47.702;9.410;2023-07-08T11:45:07;8.83;;;6.60;;
5869;SDS011;2961;47.702;9.410;2023-07-08T11:47:40;6.00;;;3.67;;
5869;SDS011;2961;47.702;9.410;2023-07-08T11:50:13;7.83;;;4.77;;
5869;SDS011;2961;47.702;9.410;2023-07-08T11:52:53;7.00;;;4.80;;
5869;SDS011;2961;47.702;9.410;2023-07-08T11:55:25;7.43;;;3.70;;
5869;SDS011;2961;47.702;9.410;2023-07-08T11:58:02;4.30;;;3.47;;
5869;SDS011;2961;47.702;9.410;2023-07-08T12:00:33;6.90;;;3.83;;
5869;SDS011;2961;47.702;9.410;2023-07-08T12:03:03;2.47;;;2.27;;
5869;SDS011;2961;47.702;9.410;2023-07-08T12:05:43;6.63;;;5.10;;
5869;SDS011;2961;47.702;9.410;2023-07-08T12:08:12;3.23;;;3.03;;
5869;SDS011;2961;47.702;9.410;2023-07-08T12:10:40;8.23;;;3.93;;
5869;SDS011;2961;47.702;9.410;2023-07-08T12:13:14;5.30;;;3.00;;
5869;SDS011;2961;47.702;9.410;2023-07-08T12:15:42;4.87;;;2.67;;
5869;SDS011;2961;47.702;9.410;2023-07-08T12:18:11;5.47;;;3.73;;
5869;SDS011;2961;47.702;9.410;2023-07-08T12:20:41;3.07;;;2.60;;
5869;SDS011;2961;47.702;9.410;2023-07-08T12:23:13;6.80;;;3.90;;
5869;SDS011;2961;47.702;9.410;2023-07-08T12:25:41;6.00;;;4.30;;
5869;SDS011;2961;47.702;9.410;2023-07-08T12:28:08;3.77;;;3.40;;
5869;SDS011;2961;47.702;9.410;2023-07-08T12:30:39;2.47;;;2.27;;
5869;SDS011;2961;47.702;9.410;2023-07-08T12:33:09;5.43;;;2.30;;
5869;SDS011;2961;47.702;9.410;2023-07-08T12:35:38;3.83;;;2.70;;
5869;SDS011;2961;47.702;9.410;2023-07-08T12:38:10;4.90;;;2.67;;
5869;SDS011;2961;47.702;9.410;2023-07-08T12:40:44;5.47;;;2.90;;
5869;SDS011;2961;47.702;9.410;2023-07-08T12:43:11;3.03;;;2.40;;
5869;SDS011;2961;47.702;9.410;2023-07-08T12:45:39;3.03;;;2.73;;
5869;SDS011;2961;47.702;9.410;2023-07-08T12:48:08;6.70;;;2.93;;
5869;SDS011;2961;47.702;9.410;2023-07-08T12:50:35;2.63;;;2.43;;
5869;SDS011;2961;47.702;9.410;2023-07-08T12:53:03;5.40;;;3.97;;
5869;SDS011;2961;47.702;9.410;2023-07-08T12:55:34;2.93;;;2.73;;
5869;SDS011;2961;47.702;9.410;2023-07-08T12:58:03;3.20;;;2.53;;
5869;SDS011;2961;47.702;9.410;2023-07-08T13:00:31;4.07;;;2.40;;
5869;SDS011;2961;47.702;9.410;2023-07-08T13:03:05;2.57;;;2.30;;
5869;SDS011;2961;47.702;9.410;2023-07-08T13:05:33;2.60;;;1.80;;
5869;SDS011;2961;47.702;9.410;2023-07-08T13:08:00;4.20;;;2.37;;
5869;SDS011;2961;47.702;9.410;2023-07-08T13:10:28;4.03;;;2.07;;
5869;SDS011;2961;47.702;9.410;2023-07-08T13:12:56;7.07;;;1.73;;
5869;SDS011;2961;47.702;9.410;2023-07-08T13:15:30;6.80;;;2.67;;
5869;SDS011;2961;47.702;9.410;2023-07-08T13:18:01;2.43;;;2.23;;
5869;SDS011;2961;47.702;9.410;2023-07-08T13:20:30;7.00;;;2.20;;
5869;SDS011;2961;47.702;9.410;2023-07-08T13:22:58;2.50;;;1.97;;
5869;SDS011;2961;47.702;9.410;2023-07-08T13:25:27;3.27;;;2.63;;
5869;SDS011;2961;47.702;9.410;2023-07-08T13:27:59;6.33;;;2.33;;
5869;SDS011;2961;47.702;9.410;2023-07-08T13:30:28;4.43;;;2.23;;
5869;SDS011;2961;47.702;9.410;2023-07-08T13:32:57;2.83;;;2.13;;
5869;SDS011;2961;47.702;9.410;2023-07-08T13:35:28;6.10;;;2.17;;
5869;SDS011;2961;47.702;9.410;2023-07-08T13:38:03;2.20;;;2.00;;
5869;SDS011;2961;47.702;9.410;2023-07-08T13:40:31;4.53;;;2.33;;
5869;SDS011;2961;47.702;9.410;2023-07-08T13:42:58;4.60;;;2.80;;
5869;SDS011;2961;47.702;9.410;2023-07-08T13:45:27;2.03;;;1.93;;
5869;SDS011;2961;47.702;9.410;2023-07-08T13:47:58;3.80;;;2.50;;
5869;SDS011;2961;47.702;9.410;2023-07-08T13:50:38;2.40;;;2.20;;
5869;SDS011;2961;47.702;9.410;2023-07-08T13:53:18;3.93;;;2.30;;
5869;SDS011;2961;47.702;9.410;2023-07-08T13:55:47;3.47;;;2.17;;
5869;SDS011;2961;47.702;9.410;2023-07-08T13:58:15;14.87;;;3.30;;
5869;SDS011;2961;47.702;9.410;2023-07-08T14:00:43;3.07;;;2.77;;
5869;SDS011;2961;47.702;9.410;2023-07-08T14:03:11;4.57;;;2.43;;
5869;SDS011;2961;47.702;9.410;2023-07-08T14:05:41;2.67;;;2.40;;
5869;SDS011;2961;47.702;9.410;2023-07-08T14:08:11;7.87;;;3.00;;
5869;SDS011;2961;47.702;9.410;2023-07-08T14:10:39;3.13;;;2.33;;
5869;SDS011;2961;47.702;9.410;2023-07-08T14:13:06;2.40;;;2.20;;
5869;SDS011;2961;47.702;9.410;2023-07-08T14:15:33;3.80;;;2.10;;
5869;SDS011;2961;47.702;9.410;2023-07-08T14:18:00;2.40;;;2.20;;
5869;SDS011;2961;47.702;9.410;2023-07-08T14:20:28;3.93;;;2.40;;
5869;SDS011;2961;47.702;9.410;2023-07-08T14:22:57;3.33;;;2.07;;
5869;SDS011;2961;47.702;9.410;2023-07-08T14:25:24;3.30;;;2.80;;
5869;SDS011;2961;47.702;9.410;2023-07-08T14:27:51;36.03;;;3.27;;
5869;SDS011;2961;47.702;9.410;2023-07-08T14:30:17;16.03;;;2.63;;
5869;SDS011;2961;47.702;9.410;2023-07-08T14:32:44;3.10;;;2.87;;
5869;SDS011;2961;47.702;9.410;2023-07-08T14:35:15;2.83;;;2.50;;
5869;SDS011;2961;47.702;9.410;2023-07-08T14:37:43;3.33;;;2.40;;
5869;SDS011;2961;47.702;9.410;2023-07-08T14:40:18;4.43;;;2.30;;
5869;SDS011;2961;47.702;9.410;2023-07-08T14:42:50;3.60;;;2.30;;
5869;SDS011;2961;47.702;9.410;2023-07-08T14:45:22;4.00;;;2.47;;
5869;SDS011;2961;47.702;9.410;2023-07-08T14:47:50;2.30;;;1.70;;
5869;SDS011;2961;47.702;9.410;2023-07-08T14:50:17;5.90;;;2.90;;
5869;SDS011;2961;47.702;9.410;2023-07-08T14:52:43;7.20;;;3.20;;
5869;SDS011;2961;47.702;9.410;2023-07-08T14:55:10;7.40;;;2.33;;
5869;SDS011;2961;47.702;9.410;2023-07-08T14:57:42;5.03;;;2.67;;
5869;SDS011;2961;47.702;9.410;2023-07-08T15:00:12;2.63;;;2.43;;
5869;SDS011;2961;47.702;9.410;2023-07-08T15:02:40;3.20;;;2.40;;
5869;SDS011;2961;47.702;9.410;2023-07-08T15:05:11;2.60;;;2.40;;
5869;SDS011;2961;47.702;9.410;2023-07-08T15:07:40;3.90;;;2.20;;
5869;SDS011;2961;47.702;9.410;2023-07-08T15:10:07;2.13;;;1.93;;
5869;SDS011;2961;47.702;9.410;2023-07-08T15:12:34;4.33;;;2.67;;
5869;SDS011;2961;47.702;9.410;2023-07-08T15:15:03;2.80;;;2.50;;
5869;SDS011;2961;47.702;9.410;2023-07-08T15:17:30;2.13;;;1.83;;
5869;SDS011;2961;47.702;9.410;2023-07-08T15:19:57;2.40;;;2.30;;
5869;SDS011;2961;47.702;9.410;2023-07-08T15:22:24;3.23;;;2.80;;
5869;SDS011;2961;47.702;9.410;2023-07-08T15:24:50;3.43;;;2.47;;
5869;SDS011;2961;47.702;9.410;2023-07-08T15:27:18;7.00;;;2.53;;